Time;durP1;ratioP1;P1;durP2;ratioP2;P2;SDS_P1;SDS_P2;PMS_P1;PMS_P2;Temp;Humidity;BMP_temperature;BMP_pressure;BME280_temperature;BME280_humidity;BME280_pressure;Samples;Min_cycle;Max_cycle;Signal;HPM_P1;HPM_P2
2022/01/17 00:01:52;;;;;;;69.03;38.13;;;;;;;;;;5095038;28;20297;-70
2022/01/17 00:04:20;;;;;;;71.77;38.87;;;;;;;;;;5095085;28;20214;-70
2022/01/17 00:06:48;;;;;;;74.43;37.00;;;;;;;;;;5093882;28;20245;-70
2022/01/17 00:09:15;;;;;;;71.60;35.83;;;;;;;;;;5094684;28;20218;-70
2022/01/17 00:11:45;;;;;;;66.70;37.03;;;;;;;;;;5094948;28;20206;-70
2022/01/17 00:14:16;;;;;;;71.07;36.53;;;;;;;;;;5094806;28;20225;-70
2022/01/17 00:16:50;;;;;;;65.03;36.80;;;;;;;;;;5094788;28;20203;-70
2022/01/17 00:21:51;;;;;;;65.43;34.80;;;;;;;;;;5094691;28;20206;-70
2022/01/17 00:24:21;;;;;;;63.17;33.97;;;;;;;;;;5094942;28;20303;-70
2022/01/17 00:26:50;;;;;;;57.73;33.23;;;;;;;;;;5094766;28;20242;-70
2022/01/17 00:29:17;;;;;;;60.13;33.83;;;;;;;;;;5094604;28;20210;-70
2022/01/17 00:31:44;;;;;;;59.93;33.27;;;;;;;;;;5094639;28;20207;-70
2022/01/17 00:34:12;;;;;;;53.47;29.63;;;;;;;;;;5094360;28;20215;-70
2022/01/17 00:36:39;;;;;;;52.77;30.07;;;;;;;;;;5094613;28;20210;-70
2022/01/17 00:39:06;;;;;;;55.43;31.37;;;;;;;;;;5094579;28;20213;-70
2022/01/17 00:41:33;;;;;;;56.77;30.47;;;;;;;;;;5094368;28;20539;-70
2022/01/17 00:44:01;;;;;;;52.17;28.67;;;;;;;;;;5094126;28;20835;-70
2022/01/17 00:46:28;;;;;;;54.57;31.67;;;;;;;;;;5094321;28;20295;-71
2022/01/17 00:48:56;;;;;;;51.63;31.00;;;;;;;;;;5094284;28;20214;-70
2022/01/17 00:51:23;;;;;;;52.20;28.90;;;;;;;;;;5094547;28;20275;-70
2022/01/17 00:53:51;;;;;;;53.70;31.10;;;;;;;;;;5094487;28;20242;-70
2022/01/17 00:56:20;;;;;;;52.27;29.93;;;;;;;;;;5094110;28;20305;-70
2022/01/17 00:58:47;;;;;;;52.47;30.07;;;;;;;;;;5094249;28;20213;-70
2022/01/17 01:01:15;;;;;;;57.20;32.77;;;;;;;;;;5101007;28;20649;-70
2022/01/17 01:03:43;;;;;;;56.93;32.13;;;;;;;;;;5118192;28;20205;-70
2022/01/17 01:06:10;;;;;;;50.50;30.43;;;;;;;;;;5118911;28;20236;-70
2022/01/17 01:08:38;;;;;;;53.97;33.10;;;;;;;;;;5118722;28;20343;-70
2022/01/17 01:11:05;;;;;;;54.37;33.00;;;;;;;;;;5118747;28;20206;-70
2022/01/17 01:13:33;;;;;;;48.00;29.20;;;;;;;;;;5118473;28;20691;-70
2022/01/17 01:21:36;;;;;;;49.53;31.43;;;;;;;;;;5118620;28;20198;-70
2022/01/17 01:29:15;;;;;;;42.43;28.37;;;;;;;;;;5117151;28;20260;-70
2022/01/17 01:32:07;;;;;;;44.33;26.57;;;;;;;;;;5118453;28;20206;-70
2022/01/17 01:34:38;;;;;;;39.43;24.07;;;;;;;;;;5118007;28;20213;-70
2022/01/17 01:37:06;;;;;;;41.57;25.90;;;;;;;;;;5118339;28;20198;-70
2022/01/17 01:39:37;;;;;;;35.00;21.90;;;;;;;;;;5118120;28;20707;-70
2022/01/17 01:42:14;;;;;;;44.07;27.13;;;;;;;;;;5118245;28;20194;-70
2022/01/17 01:44:42;;;;;;;42.70;26.40;;;;;;;;;;5117880;28;20320;-70
2022/01/17 01:47:09;;;;;;;40.17;23.47;;;;;;;;;;5117820;28;20325;-70
2022/01/17 01:49:37;;;;;;;37.63;25.00;;;;;;;;;;5118110;28;20284;-70
2022/01/17 01:52:04;;;;;;;38.67;24.77;;;;;;;;;;5118046;28;20210;-70
2022/01/17 01:54:32;;;;;;;36.10;22.80;;;;;;;;;;5117993;28;20206;-70
2022/01/17 01:56:59;;;;;;;37.83;23.57;;;;;;;;;;5118109;28;20210;-70
2022/01/17 01:59:26;;;;;;;38.40;23.13;;;;;;;;;;5118194;27;20218;-70
2022/01/17 02:01:55;;;;;;;36.13;22.10;;;;;;;;;;5116727;28;20213;-70
2022/01/17 02:04:22;;;;;;;39.27;23.77;;;;;;;;;;5117543;27;20209;-70
2022/01/17 02:06:49;;;;;;;38.90;24.20;;;;;;;;;;5117411;28;20704;-70
2022/01/17 02:09:17;;;;;;;36.60;23.83;;;;;;;;;;5117620;28;20218;-70
2022/01/17 02:11:44;;;;;;;38.30;24.13;;;;;;;;;;5116404;28;20782;-70
2022/01/17 02:14:11;;;;;;;41.33;25.83;;;;;;;;;;5116414;28;20262;-70
2022/01/17 02:16:40;;;;;;;39.27;24.20;;;;;;;;;;5116514;28;20292;-70
2022/01/17 02:19:07;;;;;;;40.70;25.03;;;;;;;;;;5117129;27;20214;-70
2022/01/17 02:24:20;;;;;;;41.80;25.70;;;;;;;;;;5117218;28;20194;-70
2022/01/17 02:26:50;;;;;;;38.37;24.70;;;;;;;;;;5117029;28;20232;-70
2022/01/17 02:29:18;;;;;;;35.40;22.80;;;;;;;;;;5116062;28;20529;-70
2022/01/17 02:31:46;;;;;;;32.33;21.83;;;;;;;;;;5117303;28;20208;-70
2022/01/17 02:34:14;;;;;;;35.43;22.63;;;;;;;;;;5116835;28;20649;-70
2022/01/17 02:36:42;;;;;;;34.77;23.50;;;;;;;;;;5117135;27;20214;-70
2022/01/17 02:39:09;;;;;;;36.77;25.20;;;;;;;;;;5117174;28;20239;-70
2022/01/17 02:41:42;;;;;;;37.27;24.03;;;;;;;;;;5117043;28;20210;-70
2022/01/17 02:44:10;;;;;;;35.47;22.20;;;;;;;;;;5116900;28;20245;-70
2022/01/17 02:46:38;;;;;;;34.40;22.67;;;;;;;;;;5116904;28;20230;-70
2022/01/17 02:49:06;;;;;;;33.13;19.70;;;;;;;;;;5116921;28;20296;-70
2022/01/17 02:51:33;;;;;;;34.47;22.83;;;;;;;;;;5116869;28;20753;-70
2022/01/17 02:54:01;;;;;;;37.83;23.63;;;;;;;;;;5117081;28;20202;-70
2022/01/17 02:56:29;;;;;;;36.97;23.10;;;;;;;;;;5116503;28;20253;-70
2022/01/17 02:58:56;;;;;;;34.23;22.53;;;;;;;;;;5116421;28;20238;-70
2022/01/17 03:01:25;;;;;;;32.93;21.77;;;;;;;;;;5116521;28;20608;-70
2022/01/17 03:03:54;;;;;;;33.53;21.73;;;;;;;;;;5116317;28;20206;-70
2022/01/17 03:06:22;;;;;;;36.60;23.87;;;;;;;;;;5116249;28;20252;-70
2022/01/17 03:08:50;;;;;;;38.37;22.67;;;;;;;;;;5116548;27;20210;-70
2022/01/17 03:11:25;;;;;;;36.43;22.87;;;;;;;;;;5116301;28;20205;-70
2022/01/17 03:13:53;;;;;;;35.23;22.87;;;;;;;;;;5116270;28;20194;-70
2022/01/17 03:16:29;;;;;;;38.27;24.13;;;;;;;;;;5116211;28;20245;-70
2022/01/17 03:18:57;;;;;;;40.73;25.13;;;;;;;;;;5116072;28;20197;-70
2022/01/17 03:21:27;;;;;;;37.50;23.43;;;;;;;;;;5116080;28;20244;-70
2022/01/17 03:23:58;;;;;;;42.90;26.43;;;;;;;;;;5116318;28;20201;-70
2022/01/17 03:26:29;;;;;;;41.37;26.03;;;;;;;;;;5115682;28;20201;-70
2022/01/17 03:29:01;;;;;;;47.43;28.00;;;;;;;;;;5115910;28;20204;-70
2022/01/17 03:31:29;;;;;;;42.77;25.77;;;;;;;;;;5116157;28;20193;-70
2022/01/17 03:33:56;;;;;;;47.17;28.97;;;;;;;;;;5115797;28;20271;-70
2022/01/17 03:36:23;;;;;;;43.97;27.43;;;;;;;;;;5115945;28;20233;-70
2022/01/17 03:38:51;;;;;;;48.57;28.03;;;;;;;;;;5115806;28;20213;-70
2022/01/17 03:41:18;;;;;;;50.53;28.53;;;;;;;;;;5115578;28;20206;-70
2022/01/17 03:43:45;;;;;;;47.60;27.80;;;;;;;;;;5115468;28;20610;-70
2022/01/17 03:46:13;;;;;;;47.83;27.50;;;;;;;;;;5115766;28;20293;-70
2022/01/17 03:48:40;;;;;;;47.93;28.00;;;;;;;;;;5115764;28;20206;-69
2022/01/17 03:51:07;;;;;;;46.33;28.07;;;;;;;;;;5115848;28;20217;-70
2022/01/17 03:53:35;;;;;;;46.53;27.67;;;;;;;;;;5115638;28;20210;-70
2022/01/17 03:56:03;;;;;;;42.83;26.37;;;;;;;;;;5115665;28;20210;-70
2022/01/17 03:58:30;;;;;;;41.83;23.73;;;;;;;;;;5114150;28;20677;-70
2022/01/17 04:00:58;;;;;;;45.70;26.43;;;;;;;;;;5115191;28;20576;-70
2022/01/17 04:03:26;;;;;;;44.27;27.43;;;;;;;;;;5115534;28;20255;-70
2022/01/17 04:05:55;;;;;;;45.70;27.43;;;;;;;;;;5115329;28;20669;-70
2022/01/17 04:08:22;;;;;;;41.57;26.30;;;;;;;;;;5115282;28;20241;-70
2022/01/17 04:10:50;;;;;;;44.33;26.03;;;;;;;;;;5115359;28;20218;-70
2022/01/17 04:13:18;;;;;;;38.80;25.10;;;;;;;;;;5115027;28;20696;-70
2022/01/17 04:15:45;;;;;;;41.87;25.97;;;;;;;;;;5115016;28;20210;-70
2022/01/17 04:18:14;;;;;;;40.83;24.60;;;;;;;;;;5115192;28;20259;-70
2022/01/17 04:20:42;;;;;;;41.17;27.03;;;;;;;;;;5115164;28;20229;-70
2022/01/17 04:23:11;;;;;;;41.50;26.67;;;;;;;;;;5115042;28;20407;-70
2022/01/17 04:25:40;;;;;;;45.50;27.63;;;;;;;;;;5114826;28;20307;-70
2022/01/17 04:28:09;;;;;;;43.53;26.83;;;;;;;;;;5113540;28;20259;-70
2022/01/17 04:30:37;;;;;;;42.60;26.67;;;;;;;;;;5114959;28;20577;-70
2022/01/17 04:33:05;;;;;;;41.23;25.93;;;;;;;;;;5115011;28;20321;-70
2022/01/17 04:35:33;;;;;;;39.23;25.17;;;;;;;;;;5114878;28;20210;-71
2022/01/17 04:38:05;;;;;;;42.47;25.03;;;;;;;;;;5112936;28;20592;-70
2022/01/17 04:40:37;;;;;;;40.23;27.30;;;;;;;;;;5113619;28;20198;-70
2022/01/17 04:43:17;;;;;;;72.23;41.97;;;;;;;;;;5114614;28;20241;-70
2022/01/17 04:45:45;;;;;;;54.37;33.87;;;;;;;;;;5113876;28;20206;-69
2022/01/17 04:48:13;;;;;;;45.27;27.77;;;;;;;;;;5114598;28;20700;-70
2022/01/17 04:50:41;;;;;;;42.37;26.87;;;;;;;;;;5114795;28;20239;-69
2022/01/17 04:53:08;;;;;;;80.47;36.20;;;;;;;;;;5114610;28;20237;-70
2022/01/17 04:55:36;;;;;;;78.50;36.07;;;;;;;;;;5107813;28;20209;-70
2022/01/17 04:58:04;;;;;;;115.07;39.73;;;;;;;;;;5103480;28;20218;-71
2022/01/17 05:00:31;;;;;;;128.70;105.87;;;;;;;;;;5102424;28;20262;-71
2022/01/17 05:02:59;;;;;;;37.90;23.40;;;;;;;;;;5111841;28;20575;-72
2022/01/17 05:05:26;;;;;;;41.77;26.30;;;;;;;;;;5113176;28;20233;-72
2022/01/17 05:07:54;;;;;;;37.27;22.13;;;;;;;;;;5108411;28;20242;-72
2022/01/17 05:10:22;;;;;;;39.87;24.63;;;;;;;;;;5112206;28;20305;-71
2022/01/17 05:12:51;;;;;;;40.83;25.23;;;;;;;;;;5113340;28;20755;-73
2022/01/17 05:15:28;;;;;;;37.60;23.50;;;;;;;;;;5112896;27;20670;-72
2022/01/17 05:17:59;;;;;;;33.57;20.43;;;;;;;;;;5112603;28;20233;-72
2022/01/17 05:20:27;;;;;;;40.67;26.50;;;;;;;;;;5113841;27;20651;-72
2022/01/17 05:22:55;;;;;;;36.17;24.87;;;;;;;;;;5113915;28;20232;-73
2022/01/17 05:25:23;;;;;;;46.93;27.03;;;;;;;;;;5113605;27;20232;-73
2022/01/17 05:27:50;;;;;;;40.97;24.83;;;;;;;;;;5113720;28;20269;-72
2022/01/17 05:30:18;;;;;;;40.37;25.93;;;;;;;;;;5112915;27;20230;-71
2022/01/17 05:32:47;;;;;;;33.40;22.67;;;;;;;;;;5113934;28;20325;-72
2022/01/17 05:35:15;;;;;;;58.93;29.23;;;;;;;;;;5113785;27;20230;-78
2022/01/17 05:37:43;;;;;;;60.27;30.40;;;;;;;;;;5079270;28;20324;-71
2022/01/17 05:40:12;;;;;;;42.73;25.73;;;;;;;;;;5112577;27;20234;-73
2022/01/17 05:42:40;;;;;;;34.07;21.53;;;;;;;;;;5113489;28;20700;-74
2022/01/17 05:45:08;;;;;;;48.67;26.40;;;;;;;;;;5113841;28;20295;-72
2022/01/17 05:47:36;;;;;;;39.77;24.20;;;;;;;;;;5113220;28;20249;-72
2022/01/17 05:50:05;;;;;;;37.60;23.20;;;;;;;;;;5116099;28;20704;-73
2022/01/17 05:52:33;;;;;;;38.47;23.53;;;;;;;;;;5116982;28;20774;-72
2022/01/17 05:55:01;;;;;;;37.93;24.17;;;;;;;;;;5117407;28;20272;-73
2022/01/17 05:57:28;;;;;;;38.83;23.87;;;;;;;;;;5115700;28;20233;-73
2022/01/17 05:59:56;;;;;;;36.83;23.03;;;;;;;;;;5116872;28;20230;-72
2022/01/17 06:02:24;;;;;;;33.80;23.00;;;;;;;;;;5116693;28;20240;-75
2022/01/17 06:04:51;;;;;;;34.40;21.27;;;;;;;;;;5117254;28;20237;-71
2022/01/17 06:07:18;;;;;;;30.57;19.60;;;;;;;;;;5116952;28;20312;-74
2022/01/17 06:09:46;;;;;;;38.00;23.17;;;;;;;;;;5117041;28;20237;-72
2022/01/17 06:12:13;;;;;;;36.20;21.30;;;;;;;;;;5117073;27;20230;-76
2022/01/17 06:14:40;;;;;;;31.37;21.97;;;;;;;;;;5132692;27;20238;-71
2022/01/17 06:17:07;;;;;;;35.27;23.57;;;;;;;;;;5116726;28;20230;-72
2022/01/17 06:19:35;;;;;;;29.17;20.60;;;;;;;;;;5117251;27;20265;-79
2022/01/17 06:22:03;;;;;;;32.60;20.20;;;;;;;;;;5099242;28;20201;-83
2022/01/17 06:24:31;;;;;;;46.63;28.57;;;;;;;;;;5117023;28;20213;-78
2022/01/17 06:26:58;;;;;;;32.00;20.77;;;;;;;;;;5116888;28;20263;-72
2022/01/17 06:29:26;;;;;;;42.60;25.33;;;;;;;;;;5116760;28;20209;-84
2022/01/17 06:31:54;;;;;;;49.57;26.33;;;;;;;;;;5099127;28;20206;-74
2022/01/17 06:34:32;;;;;;;40.13;25.63;;;;;;;;;;5117055;28;20198;-79
2022/01/17 06:37:00;;;;;;;27.73;19.77;;;;;;;;;;5116955;28;20210;-77
2022/01/17 06:39:27;;;;;;;29.00;21.47;;;;;;;;;;5116934;28;20550;-79
2022/01/17 06:41:54;;;;;;;31.03;20.80;;;;;;;;;;5116584;28;20707;-79
2022/01/17 06:44:21;;;;;;;40.30;22.07;;;;;;;;;;5116492;28;20261;-78
2022/01/17 06:46:48;;;;;;;41.73;23.40;;;;;;;;;;5116974;28;20210;-80
2022/01/17 06:49:16;;;;;;;33.03;20.20;;;;;;;;;;5116689;27;20261;-79
2022/01/17 06:51:43;;;;;;;35.03;22.07;;;;;;;;;;5116817;28;20233;-79
2022/01/17 06:54:10;;;;;;;37.13;22.40;;;;;;;;;;5116333;28;20271;-79
2022/01/17 06:56:43;;;;;;;44.63;23.73;;;;;;;;;;5116665;28;20210;-80
2022/01/17 06:59:12;;;;;;;37.73;22.77;;;;;;;;;;5116603;28;20247;-80
2022/01/17 07:01:39;;;;;;;32.20;20.97;;;;;;;;;;5115883;27;20210;-80
2022/01/17 07:04:07;;;;;;;36.00;21.00;;;;;;;;;;5115678;28;20258;-80
2022/01/17 07:06:34;;;;;;;35.53;23.20;;;;;;;;;;5116647;28;20213;-79
2022/01/17 07:09:05;;;;;;;33.13;22.20;;;;;;;;;;5115114;28;20240;-80
2022/01/17 07:11:38;;;;;;;31.10;21.43;;;;;;;;;;5116544;28;20195;-80
2022/01/17 07:14:08;;;;;;;29.90;18.80;;;;;;;;;;5116294;28;20527;-79
2022/01/17 07:16:37;;;;;;;33.30;22.63;;;;;;;;;;5116490;28;20194;-80
2022/01/17 07:19:04;;;;;;;34.93;21.50;;;;;;;;;;5116375;28;20202;-80
2022/01/17 07:21:32;;;;;;;39.90;24.07;;;;;;;;;;5116322;28;20217;-80
2022/01/17 07:24:00;;;;;;;37.60;21.83;;;;;;;;;;5116119;28;20209;-80
2022/01/17 07:26:28;;;;;;;25.77;15.37;;;;;;;;;;5116269;28;20206;-79
2022/01/17 07:28:55;;;;;;;29.17;18.67;;;;;;;;;;5116293;28;20237;-79
2022/01/17 07:31:22;;;;;;;32.30;22.77;;;;;;;;;;5116026;28;20217;-80
2022/01/17 07:33:56;;;;;;;43.53;25.87;;;;;;;;;;5116273;28;20205;-80
2022/01/17 07:36:31;;;;;;;50.80;22.30;;;;;;;;;;5116068;28;20198;-79
2022/01/17 07:38:59;;;;;;;46.20;25.10;;;;;;;;;;5115797;28;20649;-80
2022/01/17 07:41:26;;;;;;;40.10;21.37;;;;;;;;;;5115901;28;20688;-80
2022/01/17 07:43:58;;;;;;;27.47;18.23;;;;;;;;;;5115802;28;20245;-72
2022/01/17 07:46:34;;;;;;;30.10;19.43;;;;;;;;;;5115879;28;20216;-76
2022/01/17 07:49:10;;;;;;;34.30;22.00;;;;;;;;;;5115525;28;20279;-78
2022/01/17 07:51:43;;;;;;;28.37;17.90;;;;;;;;;;5115483;28;20649;-80
2022/01/17 07:54:14;;;;;;;27.50;18.07;;;;;;;;;;5115444;28;20922;-78
2022/01/17 07:56:43;;;;;;;28.97;17.87;;;;;;;;;;5114578;28;20203;-78
2022/01/17 07:59:12;;;;;;;28.33;18.63;;;;;;;;;;5115356;28;20664;-80
2022/01/17 08:01:40;;;;;;;26.33;17.60;;;;;;;;;;5115331;28;20244;-80
2022/01/17 08:04:09;;;;;;;23.27;15.57;;;;;;;;;;5115346;28;20210;-79
2022/01/17 08:06:39;;;;;;;22.10;15.33;;;;;;;;;;5115126;28;20206;-79
2022/01/17 08:09:18;;;;;;;23.57;15.80;;;;;;;;;;5115142;28;20286;-80
2022/01/17 08:12:03;;;;;;;29.63;18.10;;;;;;;;;;5114557;28;20198;-76
2022/01/17 08:14:31;;;;;;;21.60;15.57;;;;;;;;;;5115434;28;20244;-79
2022/01/17 08:16:58;;;;;;;23.20;15.03;;;;;;;;;;5115198;28;20222;-80
2022/01/17 08:19:25;;;;;;;19.97;14.03;;;;;;;;;;5115533;28;20213;-80
2022/01/17 08:22:03;;;;;;;22.70;15.17;;;;;;;;;;5115284;28;20194;-79
2022/01/17 08:24:31;;;;;;;21.57;15.30;;;;;;;;;;5115416;28;20198;-80
2022/01/17 08:26:59;;;;;;;23.23;14.87;;;;;;;;;;5115057;28;20745;-79
2022/01/17 08:29:28;;;;;;;21.50;15.33;;;;;;;;;;5115203;28;20283;-80
2022/01/17 08:31:58;;;;;;;32.57;19.33;;;;;;;;;;5114796;28;20656;-80
2022/01/17 08:34:27;;;;;;;23.37;16.37;;;;;;;;;;5115038;28;20240;-80
2022/01/17 08:36:54;;;;;;;23.07;15.33;;;;;;;;;;5114987;28;20236;-80
2022/01/17 08:39:23;;;;;;;20.30;13.50;;;;;;;;;;5114798;28;20226;-82
2022/01/17 08:41:51;;;;;;;21.63;14.50;;;;;;;;;;5114940;28;20209;-82
2022/01/17 08:44:19;;;;;;;24.03;14.33;;;;;;;;;;5114534;28;20320;-82
2022/01/17 08:46:47;;;;;;;22.17;14.93;;;;;;;;;;5114857;28;20208;-82
2022/01/17 08:49:16;;;;;;;23.63;15.00;;;;;;;;;;5114777;28;20233;-82
2022/01/17 08:51:46;;;;;;;22.43;13.90;;;;;;;;;;5114496;28;20198;-83
2022/01/17 08:54:13;;;;;;;23.20;14.67;;;;;;;;;;5114742;28;20205;-81
2022/01/17 08:56:41;;;;;;;30.83;17.60;;;;;;;;;;5114751;28;20202;-83
2022/01/17 08:59:08;;;;;;;26.33;15.63;;;;;;;;;;5113613;28;20206;-82
2022/01/17 09:01:35;;;;;;;21.33;14.17;;;;;;;;;;5114415;28;20206;-82
2022/01/17 09:04:03;;;;;;;17.73;12.00;;;;;;;;;;5114837;28;20292;-83
2022/01/17 09:06:31;;;;;;;18.63;11.53;;;;;;;;;;5114737;28;20210;-82
2022/01/17 09:08:59;;;;;;;33.07;15.43;;;;;;;;;;5114458;28;20238;-82
2022/01/17 09:11:28;;;;;;;28.93;15.27;;;;;;;;;;5114626;28;20206;-83
2022/01/17 09:13:55;;;;;;;26.37;15.63;;;;;;;;;;5114601;28;20240;-83
2022/01/17 09:16:23;;;;;;;38.33;17.73;;;;;;;;;;5114344;28;20320;-82
2022/01/17 09:18:50;;;;;;;20.83;11.30;;;;;;;;;;5114217;28;20220;-80
2022/01/17 09:21:17;;;;;;;17.23;10.30;;;;;;;;;;5114510;28;20208;-82
2022/01/17 09:23:44;;;;;;;23.03;13.07;;;;;;;;;;5116216;28;20209;-82
2022/01/17 09:26:13;;;;;;;17.33;11.17;;;;;;;;;;5118289;28;20217;-82
2022/01/17 09:28:41;;;;;;;17.47;11.33;;;;;;;;;;5117371;28;20240;-82
2022/01/17 09:31:08;;;;;;;11.80;7.73;;;;;;;;;;5118499;28;20210;-82
2022/01/17 09:33:36;;;;;;;17.80;10.47;;;;;;;;;;5118198;28;20606;-81
2022/01/17 09:36:04;;;;;;;19.53;10.77;;;;;;;;;;5118415;28;20217;-80
2022/01/17 09:38:32;;;;;;;16.67;10.00;;;;;;;;;;5118695;28;20210;-80
2022/01/17 09:41:01;;;;;;;14.43;9.70;;;;;;;;;;5118117;27;20252;-81
2022/01/17 09:43:44;;;;;;;14.27;10.03;;;;;;;;;;5118141;28;20241;-80
2022/01/17 09:46:13;;;;;;;12.83;9.30;;;;;;;;;;5118245;28;20243;-75
2022/01/17 09:48:47;;;;;;;13.53;8.53;;;;;;;;;;5117834;28;20730;-78
2022/01/17 09:53:59;;;;;;;13.20;7.73;;;;;;;;;;5117972;28;20744;-80
2022/01/17 09:56:28;;;;;;;12.43;7.97;;;;;;;;;;5118106;28;20208;-80
2022/01/17 09:58:56;;;;;;;13.07;8.37;;;;;;;;;;5117962;28;20214;-79
2022/01/17 10:01:25;;;;;;;15.17;8.33;;;;;;;;;;5117628;27;20743;-79
2022/01/17 10:03:56;;;;;;;12.77;8.77;;;;;;;;;;5116524;28;20209;-80
2022/01/17 10:06:24;;;;;;;9.63;6.80;;;;;;;;;;5117744;28;20198;-80
2022/01/17 10:09:21;;;;;;;17.30;9.60;;;;;;;;;;5117810;28;20230;-80
2022/01/17 10:12:07;;;;;;;18.60;9.50;;;;;;;;;;5116570;28;20210;-79
2022/01/17 10:14:58;;;;;;;4.73;3.07;;;;;;;;;;5117874;28;20194;-77
2022/01/17 10:17:43;;;;;;;1.97;1.33;;;;;;;;;;5116353;28;20210;-85
2022/01/17 10:20:14;;;;;;;1.80;1.00;;;;;;;;;;5099498;28;20206;-83
2022/01/17 10:22:57;;;;;;;1.63;0.90;;;;;;;;;;5117284;28;20209;-83
2022/01/17 10:25:43;;;;;;;1.40;1.10;;;;;;;;;;5117559;28;20194;-85
2022/01/17 10:34:53;;;;;;;1.10;1.00;;;;;;;;;;5117185;28;20253;-79
2022/01/17 10:36:49;;;;;;;1.87;1.00;;;;;;;;;;5116711;28;20251;-70
2022/01/17 10:39:16;;;;;;;1.80;1.17;;;;;;;;;;5116979;28;20209;-81
2022/01/17 10:41:43;;;;;;;1.07;0.80;;;;;;;;;;5117181;28;20237;-80
2022/01/17 10:44:11;;;;;;;1.00;0.90;;;;;;;;;;5116922;28;20295;-79
2022/01/17 10:46:38;;;;;;;1.23;0.97;;;;;;;;;;5116807;27;20691;-79
2022/01/17 10:49:46;;;;;;;1.90;1.10;;;;;;;;;;5116105;28;20233;-80
2022/01/17 10:52:29;;;;;;;3.17;1.20;;;;;;;;;;5115869;28;20201;-80
2022/01/17 10:55:00;;;;;;;2.43;1.37;;;;;;;;;;5115927;28;20289;-80
2022/01/17 10:57:33;;;;;;;3.37;1.50;;;;;;;;;;5115625;28;20209;-79
2022/01/17 11:00:01;;;;;;;3.83;1.50;;;;;;;;;;5115815;28;20201;-80
2022/01/17 11:02:28;;;;;;;2.67;1.37;;;;;;;;;;5115584;28;20213;-80
2022/01/17 11:04:56;;;;;;;3.83;1.53;;;;;;;;;;5116703;27;20201;-81
2022/01/17 11:07:24;;;;;;;3.23;1.70;;;;;;;;;;5116429;28;20213;-80
2022/01/17 11:09:51;;;;;;;1.87;1.33;;;;;;;;;;5116515;28;20234;-80
2022/01/17 11:12:19;;;;;;;1.90;1.30;;;;;;;;;;5116644;28;20221;-80
2022/01/17 11:14:47;;;;;;;4.13;1.73;;;;;;;;;;5115255;28;20220;-80
2022/01/17 11:17:31;;;;;;;4.13;1.60;;;;;;;;;;5116472;28;20209;-72
2022/01/17 11:20:08;;;;;;;8.20;2.03;;;;;;;;;;5115093;28;20197;-80
2022/01/17 11:22:44;;;;;;;1.57;1.47;;;;;;;;;;5116198;28;20202;-79
2022/01/17 11:25:15;;;;;;;2.10;1.03;;;;;;;;;;5116305;28;20197;-80
2022/01/17 11:27:42;;;;;;;1.93;1.10;;;;;;;;;;5116187;28;20592;-79
2022/01/17 11:30:10;;;;;;;3.47;1.53;;;;;;;;;;5115875;27;20229;-80
2022/01/17 11:32:38;;;;;;;4.63;1.60;;;;;;;;;;5116150;28;20206;-80
2022/01/17 11:35:06;;;;;;;4.63;1.60;;;;;;;;;;5115779;28;20217;-80
2022/01/17 11:37:40;;;;;;;0.97;0.90;;;;;;;;;;5115936;28;20560;-80
2022/01/17 11:40:10;;;;;;;4.87;1.23;;;;;;;;;;5116132;28;20255;-79
2022/01/17 11:42:49;;;;;;;3.50;1.47;;;;;;;;;;5114522;28;20665;-77
2022/01/17 11:45:22;;;;;;;2.87;1.40;;;;;;;;;;5115778;28;20201;-73
2022/01/17 11:47:55;;;;;;;2.87;1.27;;;;;;;;;;5115588;28;20232;-78
2022/01/17 11:50:29;;;;;;;7.20;1.60;;;;;;;;;;5115478;28;20217;-78
2022/01/17 11:53:02;;;;;;;5.50;1.67;;;;;;;;;;5115615;28;20256;-81
2022/01/17 11:55:42;;;;;;;3.40;1.37;;;;;;;;;;5115578;28;20561;-82
2022/01/17 11:58:29;;;;;;;5.33;2.00;;;;;;;;;;5114358;28;20206;-77
2022/01/17 12:00:56;;;;;;;4.37;2.00;;;;;;;;;;5115866;28;20198;-76
2022/01/17 12:03:26;;;;;;;6.17;2.00;;;;;;;;;;5115834;28;20288;-76
2022/01/17 12:05:55;;;;;;;9.70;2.90;;;;;;;;;;5115507;28;20244;-80
2022/01/17 12:08:26;;;;;;;5.83;2.30;;;;;;;;;;5114057;28;20209;-78
2022/01/17 12:11:00;;;;;;;11.10;2.27;;;;;;;;;;5115477;28;20202;-80
2022/01/17 12:13:41;;;;;;;5.30;2.57;;;;;;;;;;5114344;28;20243;-78
2022/01/17 12:18:50;;;;;;;5.20;2.17;;;;;;;;;;5096245;28;20711;-73
2022/01/17 12:21:57;;;;;;;4.83;2.27;;;;;;;;;;5114609;27;20237;-73
2022/01/17 12:24:38;;;;;;;7.73;2.00;;;;;;;;;;5089348;28;20238;-72
2022/01/17 12:27:11;;;;;;;4.93;2.57;;;;;;;;;;5114600;28;20225;-72
2022/01/17 12:29:52;;;;;;;8.43;1.70;;;;;;;;;;5113054;27;20246;-72
2022/01/17 12:32:25;;;;;;;3.23;2.00;;;;;;;;;;5114895;28;20248;-72
2022/01/17 12:35:17;;;;;;;6.27;2.10;;;;;;;;;;5114398;27;20230;-72
2022/01/17 12:37:53;;;;;;;4.97;1.93;;;;;;;;;;5114674;28;20290;-72
2022/01/17 12:40:32;;;;;;;6.87;2.83;;;;;;;;;;5114318;27;20237;-69
2022/01/17 12:43:17;;;;;;;4.67;1.40;;;;;;;;;;5114417;28;20290;-72
2022/01/17 12:45:46;;;;;;;9.67;2.63;;;;;;;;;;5095134;28;20244;-74
2022/01/17 12:48:19;;;;;;;6.97;2.37;;;;;;;;;;5114473;28;20261;-74
2022/01/17 12:50:49;;;;;;;6.33;2.40;;;;;;;;;;5112531;27;20257;-78
2022/01/17 12:53:18;;;;;;;5.00;2.20;;;;;;;;;;5114291;28;20237;-72
2022/01/17 12:55:48;;;;;;;12.13;3.30;;;;;;;;;;5114135;27;20279;-71
2022/01/17 12:58:19;;;;;;;6.67;1.97;;;;;;;;;;5113801;28;20279;-72
2022/01/17 13:00:54;;;;;;;8.77;2.30;;;;;;;;;;5112509;28;20237;-73
2022/01/17 13:03:29;;;;;;;6.37;2.10;;;;;;;;;;5114435;28;20598;-72
2022/01/17 13:05:59;;;;;;;5.60;2.10;;;;;;;;;;5114193;28;20323;-75
2022/01/17 13:08:26;;;;;;;7.50;2.00;;;;;;;;;;5114254;28;20230;-72
2022/01/17 13:10:55;;;;;;;5.97;1.93;;;;;;;;;;5113976;28;20241;-72
2022/01/17 13:13:23;;;;;;;6.53;1.90;;;;;;;;;;5113018;28;20230;-72
2022/01/17 13:16:00;;;;;;;8.17;2.77;;;;;;;;;;5112645;28;20229;-71
2022/01/17 13:18:29;;;;;;;2.30;1.67;;;;;;;;;;5114139;28;20265;-73
2022/01/17 13:20:58;;;;;;;8.60;1.93;;;;;;;;;;5113944;28;20648;-74
2022/01/17 13:23:43;;;;;;;3.67;1.70;;;;;;;;;;5102391;28;20280;-75
2022/01/17 13:26:15;;;;;;;6.70;2.03;;;;;;;;;;5110699;28;20719;-79
2022/01/17 13:28:50;;;;;;;3.80;1.63;;;;;;;;;;5108543;28;20675;-78
2022/01/17 13:31:30;;;;;;;4.90;1.77;;;;;;;;;;5113444;28;20304;-75
2022/01/17 13:34:11;;;;;;;4.70;1.73;;;;;;;;;;5113441;28;20325;-77
2022/01/17 13:36:39;;;;;;;5.50;1.87;;;;;;;;;;5103577;28;20229;-77
2022/01/17 13:39:09;;;;;;;5.93;2.03;;;;;;;;;;5113315;28;20328;-74
2022/01/17 13:41:41;;;;;;;3.87;2.27;;;;;;;;;;5113800;28;20261;-76
2022/01/17 13:44:09;;;;;;;6.30;2.47;;;;;;;;;;5111642;28;20707;-77
2022/01/17 13:46:43;;;;;;;7.80;2.10;;;;;;;;;;5114074;28;20234;-76
2022/01/17 13:49:11;;;;;;;7.37;2.30;;;;;;;;;;5112353;28;20245;-76
2022/01/17 13:51:38;;;;;;;9.20;2.13;;;;;;;;;;5113337;28;20772;-78
2022/01/17 13:54:05;;;;;;;5.37;1.93;;;;;;;;;;5113697;28;20276;-78
2022/01/17 13:56:35;;;;;;;10.57;2.03;;;;;;;;;;5114121;28;20244;-78
2022/01/17 13:59:04;;;;;;;6.37;2.00;;;;;;;;;;5112692;28;20238;-74
2022/01/17 14:01:34;;;;;;;5.00;1.70;;;;;;;;;;5113835;28;20317;-78
2022/01/17 14:04:04;;;;;;;3.03;1.40;;;;;;;;;;5113781;28;20234;-79
2022/01/17 14:06:33;;;;;;;5.80;1.93;;;;;;;;;;5111634;28;20237;-76
2022/01/17 14:09:04;;;;;;;6.63;1.77;;;;;;;;;;5113328;28;20238;-75
2022/01/17 14:11:33;;;;;;;7.40;1.60;;;;;;;;;;5116131;27;20229;-79
2022/01/17 14:14:00;;;;;;;6.43;1.50;;;;;;;;;;5116449;28;20241;-76
2022/01/17 14:30:08;;;;;;;5.63;2.33;;;;;;;;;;6166664;22;1463679;-67
2022/01/17 14:32:36;;;;;;;3.90;1.40;;;;;;;;;;6220957;23;20479;-68
2022/01/17 14:35:08;;;;;;;2.73;1.43;;;;;;;;;;6223417;22;20186;-67
2022/01/17 14:37:35;;;;;;;6.23;1.40;;;;;;;;;;6234673;22;20183;-67
2022/01/17 14:40:06;;;;;;;2.80;1.40;;;;;;;;;;6224397;23;20180;-68
2022/01/17 14:42:40;;;;;;;2.57;1.20;;;;;;;;;;6234095;22;20172;-68
2022/01/17 14:45:14;;;;;;;4.40;1.30;;;;;;;;;;6222978;23;20171;-69
2022/01/17 14:47:44;;;;;;;4.77;1.73;;;;;;;;;;6222575;23;20211;-68
2022/01/17 14:50:13;;;;;;;5.43;1.70;;;;;;;;;;6222864;23;20214;-68
2022/01/17 14:52:44;;;;;;;3.27;1.57;;;;;;;;;;6224362;23;20204;-67
2022/01/17 14:55:33;;;;;;;4.47;1.63;;;;;;;;;;6222618;23;20226;-68
2022/01/17 15:00:47;;;;;;;9.73;2.03;;;;;;;;;;6223898;23;20626;-71
2022/01/17 15:03:18;;;;;;;5.00;2.10;;;;;;;;;;6222472;23;20176;-69
2022/01/17 15:05:47;;;;;;;6.60;1.70;;;;;;;;;;6224009;23;20172;-68
2022/01/17 15:08:14;;;;;;;4.60;1.70;;;;;;;;;;6223979;22;20180;-68
2022/01/17 15:10:42;;;;;;;6.10;1.60;;;;;;;;;;6223749;23;20505;-78
2022/01/17 15:13:10;;;;;;;2.40;1.47;;;;;;;;;;6222839;23;20187;-65
2022/01/17 15:15:40;;;;;;;1.43;1.23;;;;;;;;;;6224067;23;20193;-64
2022/01/17 15:18:11;;;;;;;2.97;1.53;;;;;;;;;;6222053;22;20199;-64
2022/01/17 15:20:41;;;;;;;7.10;1.60;;;;;;;;;;6224023;23;20254;-65
2022/01/17 15:23:09;;;;;;;3.97;1.50;;;;;;;;;;6224131;22;20696;-69
2022/01/17 15:25:36;;;;;;;4.40;1.37;;;;;;;;;;6222307;23;20611;-72
2022/01/17 15:28:08;;;;;;;3.03;1.33;;;;;;;;;;6223587;22;20622;-69